Goodhue, MN (55027)

10:52 AM CDT on August 28, 2015 (GMT -0500)
SE Minn | | Change Station
CLOSE
Current Station
Personal Weather Station
Location: Lake City, MN
Elevation: 1000 ft
Nearby Weather Stations

Elev 1000 ft 44.32 °N, 92.44 °W | Updated 51 seconds ago

Rain
Rain
64.5 °F
Feels Like 64.5 °F
N
6.0
Wind Variable Wind from SSE
Gusts 10.0 mph

Today
High -- | Low -- °F
--% Chance of Precip.
Yesterday
High -- | Low -- °F
Precip. -- in
6:28 AM 7:54 PM
Waxing Gibbous, 98% visible
Pressure 30.03 in
Visibility 10.0 miles
Clouds Mostly Cloudy 900 ft
Dew Point 64 °F
Humidity 97%
Rainfall 0.13 in
Snow Depth Not available.
UV 3 out of 12
Pollen 1.10 out of 12
Air Quality Not available.
Flu Activity Not available.
METAR KRGK 281535Z AUTO 13007KT 10SM -RA BKN009 19/17 A3003 RMK AO2 P0001
Pressure 30.03 in
Visibility 10.0 miles
Clouds Mostly Cloudy 900 ft
Dew Point 64 °F
Humidity 97%
Rainfall 0.13 in
Snow Depth Not available.
UV 3 out of 12
Pollen 1.10 out of 12
Air Quality Not available.
Flu Activity Not available.
METAR KRGK 281535Z AUTO 13007KT 10SM -RA BKN009 19/17 A3003 RMK AO2 P0001

10-Day Weather Forecast

×

Almanac

Astronomy

Aug. 28, 2015 Rise Set
Actual Time
Civil Twilight
Nautical Twilight
Astronomical Twilight
Moon
Length of Visible Light
Length of Day
Tomorrow will be .
, % of the Moon is Illuminated

Today's Extremes

State Highs State Lows

Community

WunderPhotos

Upload Photos

1,850,402 photos uploaded!

WunderBlogs® & News

Nearby

Air Quality

  Air Quality AQ Index Pollutant
Not available.

Snow Depth

Station Depth Elevation

Earthquake Activity

City Distance Mag. Time & Date
Minimum magnitude displayed is 2.5.

Coastal Water Temperatures

Place Temperature

Stations

Nearby Weather Stations

Station Location Temp. Windchill Dew Point Humidity Wind Precip. Elev Updated Type